Time;durP1;ratioP1;P1;durP2;ratioP2;P2;SDS_P1;SDS_P2;PMS_P1;PMS_P2;Temp;Humidity;BMP_temperature;BMP_pressure;BME280_temperature;BME280_humidity;BME280_pressure;Samples;Min_cycle;Max_cycle;Signal;HPM_P1;HPM_P2
2023/05/21 12:00:26;;;;;;;;;;;15.90;94.00;;;;;;5135778;22;19994;-96
2023/05/21 12:03:37;;;;;;;;;;;16.00;94.00;;;;;;5032975;28;19905;-96
2023/05/21 12:11:51;;;;;;;;;;;16.00;94.00;;;;;;5058085;28;20097;-96
2023/05/21 12:26:00;;;;;;;;;;;16.00;94.00;;;;;;5071868;28;19948;-96
2023/05/21 12:29:03;;;;;;;;;;;16.00;94.00;;;;;;5059679;28;19913;-96
2023/05/21 12:32:28;;;;;;;;;;;16.00;94.00;;;;;;5064196;28;19893;-96
2023/05/21 12:43:22;;;;;;;;;;;16.00;94.10;;;;;;5726149;22;19931;-96
2023/05/21 12:46:33;;;;;;;;;;;16.00;94.10;;;;;;5074235;28;19921;-96
2023/05/21 12:49:37;;;;;;;;;;;16.00;94.10;;;;;;5052047;28;19917;-96
2023/05/21 12:55:09;;;;;;;;;;;16.00;94.10;;;;;;5137730;22;19926;-96
2023/05/21 12:58:22;;;;;;;;;;;16.00;94.20;;;;;;5063747;28;19924;-96
2023/05/21 13:01:24;;;;;;;;;;;16.10;94.20;;;;;;5011541;28;19921;-96
2023/05/21 13:04:06;;;;;;;;;;;16.00;94.20;;;;;;5018561;28;19922;-96
2023/05/21 13:07:13;;;;;;;;;;;16.00;94.20;;;;;;5009152;28;20354;-96
2023/05/21 13:10:23;;;;;;;;;;;16.00;94.20;;;;;;5030122;28;19913;-96
2023/05/21 13:39:33;;;;;;;;;;;16.00;94.00;;;;;;5031447;28;19926;-96
2023/05/21 13:42:31;;;;;;;;;;;16.00;94.00;;;;;;5032351;28;19921;-96
2023/05/21 14:03:18;;;;;;;;;;;16.00;93.70;;;;;;5064863;28;19932;-96
2023/05/21 14:06:17;;;;;;;;;;;16.00;93.70;;;;;;5070330;28;19931;-96
2023/05/21 14:09:27;;;;;;;;;;;16.00;93.60;;;;;;5075573;28;19904;-96
2023/05/21 14:12:30;;;;;;;;;;;16.00;93.50;;;;;;5050497;28;19969;-96
2023/05/21 14:15:35;;;;;;;;;;;16.00;93.50;;;;;;5058912;28;19910;-96
2023/05/21 14:18:24;;;;;;;;;;;16.00;93.40;;;;;;5047349;28;19981;-96
2023/05/21 14:21:13;;;;;;;;;;;16.00;93.40;;;;;;5048646;28;19917;-96
2023/05/21 14:23:59;;;;;;;;;;;16.00;93.40;;;;;;5038006;28;19919;-96
2023/05/21 14:26:52;;;;;;;;;;;16.00;93.30;;;;;;5046090;28;19919;-96
2023/05/21 14:33:11;;;;;;;;;;;;;;;;;;;;;
2023/05/21 14:43:43;;;;;;;;;;;16.00;92.90;;;;;;5042065;28;19925;-96
2023/05/21 14:46:35;;;;;;;;;;;16.00;92.80;;;;;;5054563;28;19909;-96
2023/05/21 14:49:38;;;;;;;;;;;16.00;92.80;;;;;;5034203;28;19917;-96
2023/05/21 14:52:42;;;;;;;;;;;16.00;92.80;;;;;;5050671;28;19940;-96
2023/05/21 14:58:55;;;;;;;;;;;16.10;92.70;;;;;;5053214;28;19921;-96
2023/05/21 15:02:10;;;;;;;;;;;16.00;92.60;;;;;;5023774;28;19917;-96
2023/05/21 15:08:21;;;;;;;;;;;16.00;92.40;;;;;;5459690;22;19936;-96
2023/05/21 15:11:08;;;;;;;;;;;16.00;92.40;;;;;;5047180;28;19924;-96
2023/05/21 15:13:57;;;;;;;;;;;16.40;92.40;;;;;;5065460;28;19952;-96
2023/05/21 15:17:04;;;;;;;;;;;16.10;92.20;;;;;;5059854;28;19917;-96
2023/05/21 15:20:06;;;;;;;;;;;16.00;92.20;;;;;;5047299;28;20043;-96
2023/05/21 15:22:42;;;;;;;;;;;16.00;92.30;;;;;;5059705;28;19917;-96
2023/05/21 15:25:30;;;;;;;;;;;16.00;92.20;;;;;;5042673;28;19941;-96
2023/05/21 15:28:36;;;;;;;;;;;16.10;92.20;;;;;;5042238;28;19908;-96
2023/05/21 15:31:43;;;;;;;;;;;16.10;92.30;;;;;;5691663;22;20219;-96
2023/05/21 15:37:46;;;;;;;;;;;16.10;92.20;;;;;;5003788;28;20057;-96
2023/05/21 15:40:43;;;;;;;;;;;16.10;92.10;;;;;;5004390;28;19910;-96
2023/05/21 15:43:31;;;;;;;;;;;16.00;91.90;;;;;;4988288;28;19911;-96
2023/05/21 15:46:17;;;;;;;;;;;16.10;91.90;;;;;;4978442;28;20020;-96
2023/05/21 15:49:05;;;;;;;;;;;16.10;91.80;;;;;;4977970;28;19910;-96
2023/05/21 15:51:52;;;;;;;;;;;16.10;91.70;;;;;;4975259;28;20005;-96
2023/05/21 15:55:06;;;;;;;;;;;16.10;91.80;;;;;;4964830;28;19917;-96
2023/05/21 16:01:21;;;;;;;;;;;16.10;91.70;;;;;;4911891;29;19986;-96
2023/05/21 16:04:31;;;;;;;;;;;16.10;91.70;;;;;;4907197;29;19923;-96
2023/05/21 16:07:53;;;;;;;;;;;;;;;;;;;;;
2023/05/21 16:10:51;;;;;;;;;;;16.10;91.50;;;;;;4855275;29;19917;-96
2023/05/21 16:14:16;;;;;;;;;;;16.10;91.50;;;;;;4863015;29;19920;-96
2023/05/21 16:17:03;;;;;;;;;;;16.10;91.50;;;;;;4907341;29;20053;-96
2023/05/21 16:19:54;;;;;;;;;;;16.10;91.60;;;;;;4908227;29;19951;-96
2023/05/21 16:25:39;;;;;;;;;;;16.10;91.50;;;;;;5197653;22;19924;-96
2023/05/21 16:28:46;;;;;;;;;;;16.10;91.60;;;;;;5048112;28;19936;-96
2023/05/21 16:31:38;;;;;;;;;;;16.10;91.60;;;;;;5055367;28;19913;-96
2023/05/21 16:34:39;;;;;;;;;;;16.10;91.60;;;;;;5060827;28;19916;-96
2023/05/21 16:37:30;;;;;;;;;;;16.10;91.60;;;;;;5050588;28;19917;-96
2023/05/21 16:40:16;;;;;;;;;;;16.10;91.60;;;;;;5060443;28;19956;-96
2023/05/21 16:43:05;;;;;;;;;;;16.10;91.60;;;;;;5065509;28;19939;-96
2023/05/21 16:46:14;;;;;;;;;;;16.10;91.60;;;;;;5061295;28;20062;-96
2023/05/21 16:49:28;;;;;;;;;;;16.10;91.60;;;;;;5061211;28;19952;-96
2023/05/21 16:52:39;;;;;;;;;;;16.20;91.70;;;;;;5006201;28;19916;-96
2023/05/21 17:24:21;;;;;;;;;;;16.10;91.50;;;;;;5505353;22;19929;-96
2023/05/21 21:24:22;;;;;;;;;;;15.60;93.30;;;;;;5204226;22;20216;-96
2023/05/21 21:27:10;;;;;;;;;;;15.60;93.30;;;;;;5059816;28;19921;-96
2023/05/21 21:36:28;;;;;;;;;;;15.60;93.40;;;;;;5030439;28;19916;-96
2023/05/21 21:39:41;;;;;;;;;;;15.60;93.40;;;;;;5001908;28;19918;-96
2023/05/21 21:42:46;;;;;;;;;;;15.50;93.40;;;;;;4957609;29;19918;-96
2023/05/21 21:45:43;;;;;;;;;;;15.60;93.50;;;;;;4951918;29;19952;-95
2023/05/21 21:48:44;;;;;;;;;;;15.70;93.50;;;;;;4940249;29;19914;-96
2023/05/21 21:51:40;;;;;;;;;;;15.60;93.50;;;;;;4960029;29;19911;-96
2023/05/21 21:58:06;;;;;;;;;;;15.60;93.50;;;;;;4964087;29;19929;-96
2023/05/21 22:00:58;;;;;;;;;;;15.60;93.60;;;;;;4951960;29;19910;-95
2023/05/21 22:04:11;;;;;;;;;;;15.60;93.60;;;;;;4956895;29;19911;-96
2023/05/21 22:07:16;;;;;;;;;;;15.50;93.60;;;;;;4948241;29;19933;-95
2023/05/21 22:10:20;;;;;;;;;;;15.50;93.70;;;;;;4973594;28;19914;-96
2023/05/21 22:13:08;;;;;;;;;;;15.50;93.70;;;;;;4974176;28;19941;-96
2023/05/21 22:15:56;;;;;;;;;;;15.60;93.70;;;;;;4999952;28;19913;-96
2023/05/21 22:19:05;;;;;;;;;;;15.60;93.70;;;;;;5050354;28;20372;-96
2023/05/21 22:22:08;;;;;;;;;;;;;;;;;;;;;
2023/05/21 22:25:08;;;;;;;;;;;;;;;;;;;;;
2023/05/21 22:28:07;;;;;;;;;;;15.50;93.80;;;;;;5056747;28;19913;-96
2023/05/21 22:31:17;;;;;;;;;;;15.50;93.80;;;;;;5047077;28;20274;-96
2023/05/21 22:34:04;;;;;;;;;;;15.50;93.80;;;;;;5035363;28;19909;-96
2023/05/21 22:37:24;;;;;;;;;;;;;;;;;;;;;
2023/05/21 22:40:22;;;;;;;;;;;15.50;93.80;;;;;;5054692;28;20004;-96
2023/05/21 22:43:26;;;;;;;;;;;15.50;93.80;;;;;;5055736;28;19972;-96
2023/05/21 22:46:37;;;;;;;;;;;15.50;93.80;;;;;;5056732;28;19967;-96
2023/05/21 22:49:39;;;;;;;;;;;15.50;93.80;;;;;;5055110;28;19909;-96
2023/05/21 22:52:42;;;;;;;;;;;15.50;93.80;;;;;;5051418;28;20266;-96
2023/05/21 22:55:48;;;;;;;;;;;;;;;;;;;;;
2023/05/21 22:58:46;;;;;;;;;;;15.50;93.80;;;;;;5058963;28;19913;-96
2023/05/21 23:01:52;;;;;;;;;;;15.50;93.80;;;;;;5050699;28;19936;-96
2023/05/21 23:04:48;;;;;;;;;;;;;;;;;;;;;
2023/05/21 23:07:47;;;;;;;;;;;15.50;93.90;;;;;;5049771;28;19915;-96
2023/05/21 23:10:44;;;;;;;;;;;15.50;93.90;;;;;;5058865;28;20354;-96
2023/05/21 23:13:32;;;;;;;;;;;15.40;93.80;;;;;;5056617;28;19913;-96
2023/05/21 23:16:29;;;;;;;;;;;15.40;93.80;;;;;;5049464;28;19909;-96
2023/05/21 23:19:35;;;;;;;;;;;15.40;93.80;;;;;;5049145;28;19948;-96
2023/05/21 23:22:23;;;;;;;;;;;15.50;93.90;;;;;;5054784;28;19913;-96
2023/05/21 23:25:34;;;;;;;;;;;15.40;93.80;;;;;;5054716;28;20354;-96
2023/05/21 23:28:23;;;;;;;;;;;15.30;93.80;;;;;;5047193;28;19920;-96
2023/05/21 23:31:08;;;;;;;;;;;15.40;93.90;;;;;;5033093;28;19909;-96
2023/05/21 23:34:00;;;;;;;;;;;15.40;93.90;;;;;;5049154;28;19909;-96
2023/05/21 23:36:53;;;;;;;;;;;15.40;93.90;;;;;;5055778;28;19909;-96
2023/05/21 23:39:48;;;;;;;;;;;15.40;93.90;;;;;;5036956;28;19917;-96
2023/05/21 23:42:57;;;;;;;;;;;15.40;93.90;;;;;;5036528;28;19909;-96
2023/05/21 23:45:48;;;;;;;;;;;15.40;94.00;;;;;;5036915;28;19916;-96
2023/05/21 23:52:02;;;;;;;;;;;15.40;94.00;;;;;;5042043;28;19908;-96
2023/05/21 23:54:53;;;;;;;;;;;15.40;94.00;;;;;;5047216;28;19920;-96
2023/05/21 23:57:47;;;;;;;;;;;15.40;94.00;;;;;;5055597;28;19924;-96
